Meleuz, Russia
Current Conditions -  °F | °C
As of 9:00 PM on Monday 24 Nov 2014 (Local Time) from UWOO Reporting Station
Scattered Clouds Scattered Clouds  
Wind Chill:   Ceiling: Unl
Heat Index:   Visibility: 3mi
Dew Point: -4°   Wind: 2mph
Humidity: 72%   Direction: 170°S
Pressure: 30.86"   Gusts: NA
Location:  52.97°N, 55.92°E
Report Text: UWOO 241600Z 17001MPS P5000 SCT240 M16/M20 Q1045 26CLRD60 NOSIGRMK QFE772/1030
Loading
Personal Weather Stations






























Interactive Weather Map New forecast layout! Learn more

10-Day Weather Forecast

Advertisements
Track Severe Weather on mobile